Time;durP1;ratioP1;P1;durP2;ratioP2;P2;SDS_P1;SDS_P2;PMS_P1;PMS_P2;Temp;Humidity;BMP_temperature;BMP_pressure;BME280_temperature;BME280_humidity;BME280_pressure;Samples;Min_cycle;Max_cycle;Signal;HPM_P1;HPM_P2
2023/06/16 00:02:17;;;;;;;;;;;;;;;10.54;79.79;100143.40;134244;1296;22543;-85
2023/06/16 00:05:18;;;;;;;;;;;;;;;10.56;80.66;100140.74;134246;1299;22468;-82
2023/06/16 00:08:19;;;;;;;;;;;;;;;10.57;80.91;100140.64;134262;1297;22464;-83
2023/06/16 00:11:19;;;;;;;;;;;;;;;10.59;80.92;100140.09;134231;1291;22981;-82
2023/06/16 00:14:20;;;;;;;;;;;;;;;10.60;80.88;100135.70;134157;1297;22449;-83
2023/06/16 00:17:23;;;;;;;;;;;;;;;10.62;81.05;100137.66;134281;1297;22444;-82
2023/06/16 00:20:26;;;;;;;;;;;;;;;10.58;80.83;100136.67;134241;1297;22438;-85
2023/06/16 00:23:27;;;;;;;;;;;;;;;10.52;80.59;100138.29;134272;1297;22496;-87
2023/06/16 00:26:28;;;;;;;;;;;;;;;10.50;80.64;100135.77;134252;1297;23595;-82
2023/06/16 00:29:28;;;;;;;;;;;;;;;10.46;80.43;100130.20;134216;1297;22496;-83
2023/06/16 00:32:29;;;;;;;;;;;;;;;10.41;80.55;100127.27;134238;1298;22452;-83
2023/06/16 00:35:30;;;;;;;;;;;;;;;10.40;80.68;100125.31;134244;1297;22458;-83
2023/06/16 00:38:32;;;;;;;;;;;;;;;10.40;80.67;100123.92;134205;1297;22498;-83
2023/06/16 00:41:32;;;;;;;;;;;;;;;10.37;80.74;100119.64;134064;1298;22467;-82
2023/06/16 00:44:33;;;;;;;;;;;;;;;10.36;80.86;100120.84;134072;1298;23157;-83
2023/06/16 00:47:34;;;;;;;;;;;;;;;10.33;80.70;100121.88;134255;1297;24187;-82
2023/06/16 00:50:35;;;;;;;;;;;;;;;10.26;80.77;100117.30;134100;1298;22427;-83
2023/06/16 00:53:35;;;;;;;;;;;;;;;10.22;80.73;100119.64;134211;1298;22406;-83
2023/06/16 00:56:37;;;;;;;;;;;;;;;10.18;80.44;100115.08;134108;1298;22460;-83
2023/06/16 00:59:38;;;;;;;;;;;;;;;10.12;80.09;100113.30;134298;1296;22583;-82
2023/06/16 01:02:38;;;;;;;;;;;;;;;10.02;80.39;100107.05;134232;1297;23076;-83
2023/06/16 01:05:39;;;;;;;;;;;;;;;9.96;80.34;100109.36;134203;1297;22460;-83
2023/06/16 01:08:59;;;;;;;;;;;;;;;9.95;80.84;100108.04;134211;1297;23144;-83
2023/06/16 01:12:07;;;;;;;;;;;;;;;9.90;80.59;100107.96;134233;1298;22459;-82
2023/06/16 01:15:13;;;;;;;;;;;;;;;9.87;81.13;100107.35;134192;1297;22432;-84
2023/06/16 01:18:22;;;;;;;;;;;;;;;9.88;81.16;100104.48;134214;1298;22441;-83
2023/06/16 01:21:43;;;;;;;;;;;;;;;9.86;80.91;100103.84;134294;1297;22753;-83
2023/06/16 01:24:45;;;;;;;;;;;;;;;9.84;81.01;100099.80;134041;1298;23085;-83
2023/06/16 01:27:47;;;;;;;;;;;;;;;9.81;81.16;100096.25;134224;1297;22437;-88
2023/06/16 01:30:50;;;;;;;;;;;;;;;9.72;81.13;100094.36;134242;1297;22446;-83
2023/06/16 01:33:51;;;;;;;;;;;;;;;9.65;81.46;100096.80;134214;1298;22504;-82
2023/06/16 01:36:52;;;;;;;;;;;;;;;9.64;81.18;100095.02;134234;1297;22462;-84
2023/06/16 01:39:53;;;;;;;;;;;;;;;9.55;81.52;100092.23;134228;1297;22449;-83
2023/06/16 01:42:55;;;;;;;;;;;;;;;9.45;81.65;100099.98;134228;1297;22460;-83
2023/06/16 01:45:56;;;;;;;;;;;;;;;9.41;81.79;100098.28;134258;1299;22467;-83
2023/06/16 01:48:57;;;;;;;;;;;;;;;9.33;81.81;100096.67;134226;1297;22472;-83
2023/06/16 01:51:57;;;;;;;;;;;;;;;9.29;81.70;100095.18;134261;1297;22532;-89
2023/06/16 01:54:58;;;;;;;;;;;;;;;9.25;81.65;100094.34;134298;1297;22439;-85
2023/06/16 01:57:58;;;;;;;;;;;;;;;9.22;81.81;100093.42;134190;1297;22451;-83
2023/06/16 02:01:04;;;;;;;;;;;;;;;9.19;82.00;100090.54;134228;1296;23213;-86
2023/06/16 02:04:05;;;;;;;;;;;;;;;9.18;81.79;100091.30;134053;1298;22471;-83
2023/06/16 02:07:14;;;;;;;;;;;;;;;9.18;81.80;100086.56;134202;1297;23269;-85
2023/06/16 02:10:20;;;;;;;;;;;;;;;9.16;81.77;100086.26;134257;1297;23254;-86
2023/06/16 02:13:21;;;;;;;;;;;;;;;9.16;82.08;100084.27;134167;1297;22435;-84
2023/06/16 02:16:21;;;;;;;;;;;;;;;9.17;81.99;100079.23;134242;1297;22449;-83
2023/06/16 02:19:22;;;;;;;;;;;;;;;9.09;81.95;100077.09;134155;1298;22438;-83
2023/06/16 02:22:22;;;;;;;;;;;;;;;9.05;82.27;100074.89;134206;1298;22446;-83
2023/06/16 02:25:23;;;;;;;;;;;;;;;9.02;82.45;100075.73;134238;1298;22460;-83
2023/06/16 02:28:23;;;;;;;;;;;;;;;9.01;82.56;100077.72;134243;1297;22477;-84
2023/06/16 02:31:24;;;;;;;;;;;;;;;9.03;82.94;100075.21;134198;1297;22455;-82
2023/06/16 02:34:27;;;;;;;;;;;;;;;9.07;82.77;100071.69;134113;1297;22439;-85
2023/06/16 02:37:28;;;;;;;;;;;;;;;9.08;82.53;100071.02;134241;1297;22445;-83
2023/06/16 02:40:29;;;;;;;;;;;;;;;9.07;82.14;100074.13;134226;1297;22435;-83
2023/06/16 02:43:31;;;;;;;;;;;;;;;9.06;82.42;100076.85;134090;1298;22467;-82
2023/06/16 02:46:32;;;;;;;;;;;;;;;9.06;82.19;100073.83;134092;1298;22465;-84
2023/06/16 02:49:32;;;;;;;;;;;;;;;9.08;82.22;100075.07;134147;1298;22499;-82
2023/06/16 02:52:33;;;;;;;;;;;;;;;9.11;82.44;100076.72;134140;1297;22431;-84
2023/06/16 02:55:35;;;;;;;;;;;;;;;9.14;82.29;100079.42;134184;1297;22438;-82
2023/06/16 02:58:35;;;;;;;;;;;;;;;9.15;82.30;100080.46;134085;1296;22451;-83
2023/06/16 03:01:38;;;;;;;;;;;;;;;9.16;82.41;100081.12;134230;1297;22440;-82
2023/06/16 03:04:45;;;;;;;;;;;;;;;9.18;82.18;100083.61;134142;1297;22487;-83
2023/06/16 03:07:56;;;;;;;;;;;;;;;9.14;82.23;100085.58;134088;1298;22585;-89
2023/06/16 03:10:57;;;;;;;;;;;;;;;9.19;82.22;100088.72;134082;1298;22438;-83
2023/06/16 03:14:04;;;;;;;;;;;;;;;9.26;82.42;100090.67;134058;1297;23616;-84
2023/06/16 03:17:06;;;;;;;;;;;;;;;9.30;82.73;100080.74;134178;1297;22459;-90
2023/06/16 03:20:07;;;;;;;;;;;;;;;9.41;82.81;100081.50;134044;1301;23070;-85
2023/06/16 03:23:15;;;;;;;;;;;;;;;9.62;83.08;100076.00;134166;1296;22425;-85
2023/06/16 03:26:16;;;;;;;;;;;;;;;9.84;82.73;100082.11;134213;1296;22450;-83
2023/06/16 03:29:36;;;;;;;;;;;;;;;10.07;82.43;100078.27;134073;1298;22428;-82
2023/06/16 03:32:38;;;;;;;;;;;;;;;10.22;82.28;100076.16;134014;1290;22687;-83
2023/06/16 03:35:39;;;;;;;;;;;;;;;10.47;82.18;100083.34;134110;1298;23198;-84
2023/06/16 03:38:43;;;;;;;;;;;;;;;10.74;82.06;100082.17;134070;1297;22469;-83
2023/06/16 03:41:44;;;;;;;;;;;;;;;10.99;81.85;100080.13;134087;1298;22413;-82
2023/06/16 03:44:44;;;;;;;;;;;;;;;11.18;81.18;100080.35;134202;1298;22466;-83
2023/06/16 03:47:45;;;;;;;;;;;;;;;11.30;80.95;100080.00;134074;1299;23061;-83
2023/06/16 03:50:46;;;;;;;;;;;;;;;11.45;80.58;100079.27;134029;1298;277231;-83
2023/06/16 03:53:47;;;;;;;;;;;;;;;11.48;80.12;100073.90;134049;1298;23059;-83
2023/06/16 03:56:47;;;;;;;;;;;;;;;11.45;80.20;100079.57;134199;1297;22437;-83
2023/06/16 03:59:48;;;;;;;;;;;;;;;11.72;81.11;100080.40;134061;1298;22424;-83
2023/06/16 04:02:48;;;;;;;;;;;;;;;12.26;81.39;100082.05;134028;1299;23312;-82
2023/06/16 04:05:55;;;;;;;;;;;;;;;12.83;81.07;100083.83;134033;1301;22551;-83
2023/06/16 04:08:58;;;;;;;;;;;;;;;13.22;80.32;100082.79;134272;1298;22531;-87
2023/06/16 04:11:58;;;;;;;;;;;;;;;13.60;79.63;100084.02;134076;1298;22407;-83
2023/06/16 04:15:00;;;;;;;;;;;;;;;13.92;79.16;100084.56;134099;1297;22490;-83
2023/06/16 04:18:00;;;;;;;;;;;;;;;14.29;78.96;100089.08;134135;1298;23235;-80
2023/06/16 04:21:01;;;;;;;;;;;;;;;14.78;78.80;100090.70;134016;1299;22459;-80
2023/06/16 04:24:03;;;;;;;;;;;;;;;15.14;77.85;100092.40;134053;1299;22457;-80
2023/06/16 04:27:04;;;;;;;;;;;;;;;15.49;77.44;100093.56;134012;1300;22462;-79
2023/06/16 04:30:06;;;;;;;;;;;;;;;15.90;76.91;100091.83;134206;1298;22427;-81
2023/06/16 04:33:07;;;;;;;;;;;;;;;16.11;75.68;100090.81;133886;1301;22469;-82
2023/06/16 04:36:09;;;;;;;;;;;;;;;16.20;74.79;100088.31;134098;1298;22477;-79
2023/06/16 04:39:11;;;;;;;;;;;;;;;16.14;74.16;100090.73;134192;1301;23170;-75
2023/06/16 04:42:12;;;;;;;;;;;;;;;16.12;74.21;100094.52;134287;1298;23248;-79
2023/06/16 04:45:13;;;;;;;;;;;;;;;16.41;74.56;100093.77;134059;1299;22463;-77
2023/06/16 04:48:19;;;;;;;;;;;;;;;16.88;74.08;100089.76;134161;1295;22469;-77
2023/06/16 04:51:20;;;;;;;;;;;;;;;17.27;73.40;100092.20;134172;1287;22398;-77
2023/06/16 04:54:21;;;;;;;;;;;;;;;17.70;73.19;100091.76;134094;1298;22509;-80
2023/06/16 04:57:21;;;;;;;;;;;;;;;18.29;72.96;100093.36;134047;1298;23263;-78
2023/06/16 05:00:27;;;;;;;;;;;;;;;18.78;71.88;100097.11;134037;1301;23405;-78
2023/06/16 05:03:28;;;;;;;;;;;;;;;19.09;71.01;100087.74;133926;1297;22592;-77
2023/06/16 05:06:30;;;;;;;;;;;;;;;19.50;70.27;100087.33;134139;1297;22525;-77
2023/06/16 05:09:32;;;;;;;;;;;;;;;19.82;69.27;100083.94;134080;1298;22453;-73
2023/06/16 05:12:32;;;;;;;;;;;;;;;20.04;68.60;100082.95;134087;1298;23230;-77
2023/06/16 05:15:33;;;;;;;;;;;;;;;20.24;67.68;100079.16;134154;1297;22667;-77
2023/06/16 05:18:34;;;;;;;;;;;;;;;20.41;66.99;100080.33;134079;1298;22451;-76
2023/06/16 05:21:35;;;;;;;;;;;;;;;20.59;66.37;100080.34;134017;1304;22476;-77
2023/06/16 05:24:36;;;;;;;;;;;;;;;20.87;66.04;100084.77;134097;1304;22480;-79
2023/06/16 05:27:37;;;;;;;;;;;;;;;21.05;65.04;100085.21;134019;1291;22452;-79
2023/06/16 05:30:37;;;;;;;;;;;;;;;21.21;64.59;100088.03;134168;1297;22545;-80
2023/06/16 05:33:38;;;;;;;;;;;;;;;21.32;63.98;100085.89;134065;1298;22440;-80
2023/06/16 05:36:38;;;;;;;;;;;;;;;21.39;63.46;100087.04;134201;1297;22477;-79
2023/06/16 05:39:45;;;;;;;;;;;;;;;21.53;62.94;100092.45;134107;1299;22438;-79
2023/06/16 05:42:45;;;;;;;;;;;;;;;21.79;63.02;100094.30;134041;1297;22506;-79
2023/06/16 05:45:46;;;;;;;;;;;;;;;22.01;62.30;100092.94;134059;1297;22442;-80
2023/06/16 05:48:50;;;;;;;;;;;;;;;22.19;62.14;100090.80;134064;1299;22452;-79
2023/06/16 05:51:51;;;;;;;;;;;;;;;22.49;61.73;100091.71;134211;1297;22444;-80
2023/06/16 05:54:52;;;;;;;;;;;;;;;22.80;60.98;100088.96;134084;1297;23125;-79
2023/06/16 05:58:00;;;;;;;;;;;;;;;23.02;60.16;100090.91;134098;1297;22555;-79
2023/06/16 06:01:03;;;;;;;;;;;;;;;23.11;59.76;100089.38;134053;1297;23159;-78
2023/06/16 06:04:06;;;;;;;;;;;;;;;23.37;59.30;100086.66;133989;1298;22592;-81
2023/06/16 06:07:07;;;;;;;;;;;;;;;23.38;58.56;100085.92;134172;1297;23330;-80
2023/06/16 06:10:08;;;;;;;;;;;;;;;23.26;58.24;100090.50;134101;1296;22455;-79
2023/06/16 06:13:09;;;;;;;;;;;;;;;23.40;58.13;100090.84;134068;1298;22441;-78
2023/06/16 06:16:12;;;;;;;;;;;;;;;23.61;57.19;100093.89;134029;1298;22452;-77
2023/06/16 06:19:12;;;;;;;;;;;;;;;23.61;56.93;100090.96;134166;1297;22450;-84
2023/06/16 06:22:12;;;;;;;;;;;;;;;23.91;56.85;100091.80;134056;1298;23175;-85
2023/06/16 06:25:13;;;;;;;;;;;;;;;24.11;56.22;100090.81;134159;1298;23278;-78
2023/06/16 06:28:14;;;;;;;;;;;;;;;24.16;55.45;100095.91;134092;1298;23155;-85
2023/06/16 06:31:15;;;;;;;;;;;;;;;24.23;55.25;100089.89;134079;1298;22441;-86
2023/06/16 06:34:16;;;;;;;;;;;;;;;24.44;54.78;100086.89;134078;1298;23318;-79
2023/06/16 06:37:18;;;;;;;;;;;;;;;24.49;54.39;100081.95;134082;1300;22553;-86
2023/06/16 06:40:19;;;;;;;;;;;;;;;24.53;54.33;100080.35;134074;1298;22446;-83
2023/06/16 06:43:20;;;;;;;;;;;;;;;24.63;54.02;100081.20;134062;1298;22468;-78
2023/06/16 06:46:23;;;;;;;;;;;;;;;24.85;53.86;100081.05;134107;1298;22468;-83
2023/06/16 06:49:23;;;;;;;;;;;;;;;25.05;53.32;100081.92;134172;1298;23212;-82
2023/06/16 06:52:24;;;;;;;;;;;;;;;25.22;52.84;100078.51;134178;1297;22439;-82
2023/06/16 06:55:24;;;;;;;;;;;;;;;25.39;52.20;100080.70;134006;1297;22459;-82
2023/06/16 06:58:25;;;;;;;;;;;;;;;25.57;52.16;100085.77;134274;1296;22434;-83
2023/06/16 07:01:25;;;;;;;;;;;;;;;25.71;51.69;100084.34;134210;1289;23381;-84
2023/06/16 07:04:26;;;;;;;;;;;;;;;25.74;51.43;100080.21;134179;1297;22468;-83
2023/06/16 07:07:29;;;;;;;;;;;;;;;25.93;51.41;100078.16;134237;1297;23187;-84
2023/06/16 07:10:32;;;;;;;;;;;;;;;25.94;51.18;100083.11;134089;1297;22507;-83
2023/06/16 07:13:33;;;;;;;;;;;;;;;26.09;50.59;100081.34;134154;1297;22483;-83
2023/06/16 07:16:33;;;;;;;;;;;;;;;26.17;50.29;100079.34;134187;1297;22464;-84
2023/06/16 07:19:34;;;;;;;;;;;;;;;26.18;49.22;100075.64;134273;1297;22441;-89
2023/06/16 07:22:38;;;;;;;;;;;;;;;25.95;49.30;100075.06;134159;1297;22522;-82
2023/06/16 07:25:38;;;;;;;;;;;;;;;26.03;49.17;100071.38;134152;1297;22457;-87
2023/06/16 07:28:40;;;;;;;;;;;;;;;26.24;49.62;100072.27;134184;1297;23159;-85
2023/06/16 07:31:40;;;;;;;;;;;;;;;26.47;49.21;100071.60;134196;1297;22563;-82
2023/06/16 07:34:41;;;;;;;;;;;;;;;26.62;48.44;100069.01;134227;1297;23575;-83
2023/06/16 07:37:42;;;;;;;;;;;;;;;26.68;48.23;100067.91;134156;1297;22441;-88
2023/06/16 07:40:43;;;;;;;;;;;;;;;26.69;47.41;100066.88;134269;1297;23325;-84
2023/06/16 07:43:43;;;;;;;;;;;;;;;26.45;46.54;100064.71;134121;1297;22460;-85
2023/06/16 07:46:45;;;;;;;;;;;;;;;26.30;47.29;100065.91;134179;1297;23181;-83
2023/06/16 07:49:48;;;;;;;;;;;;;;;26.47;46.97;100063.08;134166;1297;22439;-85
2023/06/16 07:52:48;;;;;;;;;;;;;;;26.48;46.61;100059.38;134159;1297;22454;-86
2023/06/16 07:55:48;;;;;;;;;;;;;;;26.27;46.85;100062.48;134178;1297;22459;-83
2023/06/16 07:58:51;;;;;;;;;;;;;;;26.57;46.81;100063.52;134169;1297;22426;-83
2023/06/16 08:01:52;;;;;;;;;;;;;;;26.88;46.20;100066.73;134179;1297;22384;-85
2023/06/16 08:04:52;;;;;;;;;;;;;;;27.11;45.97;100064.98;134293;1291;22479;-79
2023/06/16 08:07:53;;;;;;;;;;;;;;;27.38;44.96;100063.80;134189;1297;23182;-85
2023/06/16 08:10:57;;;;;;;;;;;;;;;27.40;44.78;100060.58;134246;1297;22465;-85
2023/06/16 08:13:57;;;;;;;;;;;;;;;27.32;44.64;100059.25;134108;1298;22428;-84
2023/06/16 08:16:58;;;;;;;;;;;;;;;27.34;44.80;100054.83;134281;1297;22485;-83
2023/06/16 08:19:58;;;;;;;;;;;;;;;27.46;44.86;100056.52;134294;1297;23254;-79
2023/06/16 08:22:59;;;;;;;;;;;;;;;27.67;44.01;100051.34;134160;1297;22459;-86
2023/06/16 08:25:59;;;;;;;;;;;;;;;27.84;43.35;100046.45;134195;1297;23770;-85
2023/06/16 08:29:00;;;;;;;;;;;;;;;28.02;43.12;100044.20;134219;1297;23918;-84
2023/06/16 08:32:01;;;;;;;;;;;;;;;28.11;43.02;100039.77;134202;1297;22485;-83
2023/06/16 08:35:02;;;;;;;;;;;;;;;28.23;43.06;100040.44;134187;1297;22490;-84
2023/06/16 08:38:03;;;;;;;;;;;;;;;28.40;42.33;100039.38;134233;1297;22443;-86
2023/06/16 08:41:07;;;;;;;;;;;;;;;28.41;42.11;100039.95;134109;1298;22643;-83
2023/06/16 08:44:09;;;;;;;;;;;;;;;28.49;41.80;100036.52;134256;1297;22433;-83
2023/06/16 08:47:10;;;;;;;;;;;;;;;28.38;40.95;100039.11;134209;1297;22461;-82
2023/06/16 08:50:10;;;;;;;;;;;;;;;28.22;41.20;100036.23;134148;1297;22543;-85
2023/06/16 08:53:11;;;;;;;;;;;;;;;27.68;41.17;100033.17;134222;1297;22434;-79
2023/06/16 08:56:13;;;;;;;;;;;;;;;27.74;41.49;100029.83;134222;1297;22617;-85
2023/06/16 08:59:14;;;;;;;;;;;;;;;27.83;41.40;100032.07;134211;1297;23078;-84
2023/06/16 09:02:15;;;;;;;;;;;;;;;28.03;41.50;100029.64;134194;1297;23158;-88
2023/06/16 09:05:17;;;;;;;;;;;;;;;28.23;41.10;100025.38;134170;1297;22495;-88
2023/06/16 09:08:19;;;;;;;;;;;;;;;28.40;40.92;100023.00;134099;1297;22495;-87
2023/06/16 09:11:21;;;;;;;;;;;;;;;28.50;40.65;100019.20;134162;1297;25392;-85
2023/06/16 09:14:21;;;;;;;;;;;;;;;28.54;40.13;100010.96;134265;1297;22503;-82
2023/06/16 09:17:24;;;;;;;;;;;;;;;28.29;40.15;100018.39;134169;1297;25194;-80
2023/06/16 09:20:25;;;;;;;;;;;;;;;27.73;39.97;100019.20;134153;1297;22466;-83
2023/06/16 09:23:27;;;;;;;;;;;;;;;27.71;40.11;100018.00;134250;1297;22529;-83
2023/06/16 09:26:35;;;;;;;;;;;;;;;27.85;40.08;100020.23;134273;1297;22528;-84
2023/06/16 09:29:37;;;;;;;;;;;;;;;27.70;40.24;100020.31;134178;1297;22466;-85
2023/06/16 09:32:38;;;;;;;;;;;;;;;27.88;40.40;100018.51;134117;1299;23239;-83
2023/06/16 09:35:40;;;;;;;;;;;;;;;28.18;40.25;100017.95;134145;1297;23219;-83
2023/06/16 09:38:40;;;;;;;;;;;;;;;28.35;39.58;100013.75;134227;1297;23430;-83
2023/06/16 09:41:43;;;;;;;;;;;;;;;28.36;39.33;100018.16;134250;1297;22479;-83
2023/06/16 09:44:43;;;;;;;;;;;;;;;28.56;38.95;100012.55;134209;1297;22523;-81
2023/06/16 09:47:45;;;;;;;;;;;;;;;28.59;38.71;100013.96;134222;1297;23637;-86
2023/06/16 09:50:45;;;;;;;;;;;;;;;28.62;38.67;100008.70;134172;1297;22449;-84
2023/06/16 09:53:46;;;;;;;;;;;;;;;28.64;38.70;100006.67;134194;1297;22470;-78
2023/06/16 09:56:47;;;;;;;;;;;;;;;28.64;38.42;100003.72;134197;1297;22449;-83
2023/06/16 09:59:48;;;;;;;;;;;;;;;28.64;38.37;100006.29;134186;1297;23367;-83
2023/06/16 10:02:50;;;;;;;;;;;;;;;28.67;37.86;100005.00;134224;1297;23158;-81
2023/06/16 10:05:54;;;;;;;;;;;;;;;28.59;37.77;100004.48;134178;1297;22485;-78
2023/06/16 10:08:55;;;;;;;;;;;;;;;28.50;37.08;100002.89;134032;1298;22541;-76
2023/06/16 10:11:57;;;;;;;;;;;;;;;28.60;37.31;99999.52;134253;1296;22511;-75
2023/06/16 10:14:58;;;;;;;;;;;;;;;28.89;37.17;99995.25;134045;1296;23155;-75
2023/06/16 10:18:03;;;;;;;;;;;;;;;29.12;36.67;99996.84;134152;1297;22490;-76
2023/06/16 10:21:04;;;;;;;;;;;;;;;29.01;36.49;99991.34;134158;1297;22490;-79
2023/06/16 10:24:08;;;;;;;;;;;;;;;29.07;36.19;99987.34;134197;1297;22563;-78
2023/06/16 10:27:09;;;;;;;;;;;;;;;29.14;35.81;99986.54;134230;1296;25261;-79
2023/06/16 10:30:16;;;;;;;;;;;;;;;29.03;36.08;99981.59;134193;1297;23223;-78
2023/06/16 10:33:19;;;;;;;;;;;;;;;29.11;36.16;99980.19;134226;1296;22443;-78
2023/06/16 10:36:23;;;;;;;;;;;;;;;29.01;35.95;99979.81;134204;1297;22435;-79
2023/06/16 10:39:24;;;;;;;;;;;;;;;28.23;35.59;99981.83;134275;1297;22454;-79
2023/06/16 10:42:25;;;;;;;;;;;;;;;27.78;36.29;99981.61;134269;1297;22707;-78
2023/06/16 10:45:28;;;;;;;;;;;;;;;27.92;36.50;99980.59;134348;1297;22443;-78
2023/06/16 10:48:51;;;;;;;;;;;;;;;28.04;36.32;99971.54;134272;1297;22447;-78
2023/06/16 10:51:53;;;;;;;;;;;;;;;28.15;36.58;99967.89;134279;1297;22554;-78
2023/06/16 10:54:55;;;;;;;;;;;;;;;28.30;36.95;99967.05;134144;1297;22485;-79
2023/06/16 10:58:19;;;;;;;;;;;;;;;28.29;36.43;99965.09;134159;1296;22447;-79
2023/06/16 11:01:26;;;;;;;;;;;;;;;28.39;36.59;99962.10;134307;1296;22403;-79
2023/06/16 11:04:27;;;;;;;;;;;;;;;28.62;36.76;99965.98;134263;1298;22491;-78
2023/06/16 11:07:27;;;;;;;;;;;;;;;28.66;36.23;99959.21;134308;1297;23177;-78
2023/06/16 11:10:27;;;;;;;;;;;;;;;28.67;35.57;99960.52;134289;1291;22485;-78
2023/06/16 11:13:35;;;;;;;;;;;;;;;28.31;35.33;99957.75;134093;1298;22471;-79
2023/06/16 11:16:36;;;;;;;;;;;;;;;28.09;35.91;99958.58;134192;1297;22447;-79
2023/06/16 11:19:37;;;;;;;;;;;;;;;27.64;35.99;99954.01;134178;1297;22537;-78
2023/06/16 11:22:37;;;;;;;;;;;;;;;27.55;36.58;99952.82;134109;1297;22424;-78
2023/06/16 11:25:38;;;;;;;;;;;;;;;27.72;36.74;99952.08;134175;1297;22534;-78
2023/06/16 11:28:40;;;;;;;;;;;;;;;27.82;36.90;99947.71;134128;1297;22444;-78
2023/06/16 11:31:40;;;;;;;;;;;;;;;27.69;36.47;99948.08;134188;1297;22473;-78
2023/06/16 11:34:41;;;;;;;;;;;;;;;27.18;36.43;99948.52;134161;1297;22439;-78
2023/06/16 11:37:49;;;;;;;;;;;;;;;26.87;37.04;99953.28;134227;1297;22484;-78
2023/06/16 11:40:50;;;;;;;;;;;;;;;26.69;37.22;99948.61;134241;1292;22437;-78
2023/06/16 11:43:51;;;;;;;;;;;;;;;26.72;37.08;99946.64;134175;1296;23644;-78
2023/06/16 11:46:52;;;;;;;;;;;;;;;26.41;37.25;99942.26;134223;1297;22469;-77
2023/06/16 11:49:52;;;;;;;;;;;;;;;26.13;37.32;99941.11;134174;1297;23300;-78
2023/06/16 11:52:53;;;;;;;;;;;;;;;25.75;37.85;99938.44;134259;1297;22438;-78
2023/06/16 11:55:55;;;;;;;;;;;;;;;25.52;38.02;99938.31;134130;1297;23187;-78
2023/06/16 11:59:01;;;;;;;;;;;;;;;25.38;38.23;99937.31;134319;1297;22456;-78
2023/06/16 12:02:03;;;;;;;;;;;;;;;25.23;38.42;99937.17;134246;1297;23217;-78
2023/06/16 12:05:05;;;;;;;;;;;;;;;25.09;38.94;99934.63;134221;1297;23360;-78
2023/06/16 12:08:06;;;;;;;;;;;;;;;25.02;39.09;99934.81;134229;1297;22451;-77
2023/06/16 12:11:08;;;;;;;;;;;;;;;24.89;38.63;99936.65;134279;1297;22451;-78
2023/06/16 12:14:11;;;;;;;;;;;;;;;24.73;38.81;99933.45;134281;1297;22457;-78
2023/06/16 12:17:11;;;;;;;;;;;;;;;24.63;38.93;99933.08;134183;1297;22485;-77
2023/06/16 12:20:13;;;;;;;;;;;;;;;24.49;38.90;99934.86;134236;1297;22448;-78
2023/06/16 12:23:13;;;;;;;;;;;;;;;24.45;38.87;99935.33;134239;1298;22712;-77
2023/06/16 12:26:29;;;;;;;;;;;;;;;24.49;39.20;99930.40;134231;1296;22470;-77
2023/06/16 12:29:32;;;;;;;;;;;;;;;24.53;39.56;99925.87;134255;1297;22466;-78
2023/06/16 12:32:36;;;;;;;;;;;;;;;24.56;39.60;99923.06;134186;1298;22424;-77
2023/06/16 12:35:36;;;;;;;;;;;;;;;24.58;39.48;99918.08;134219;1297;22853;-77
2023/06/16 12:38:40;;;;;;;;;;;;;;;24.56;39.40;99917.52;134221;1297;23240;-77
2023/06/16 12:41:40;;;;;;;;;;;;;;;24.58;39.41;99916.40;134010;1298;23315;-77
2023/06/16 12:44:42;;;;;;;;;;;;;;;24.73;39.90;99918.48;134191;1297;22457;-77
2023/06/16 12:47:45;;;;;;;;;;;;;;;24.85;39.63;99911.25;134210;1296;22645;-77
2023/06/16 12:50:46;;;;;;;;;;;;;;;24.90;39.50;99913.33;134192;1297;22489;-78
2023/06/16 12:53:46;;;;;;;;;;;;;;;24.90;39.59;99913.33;134291;1297;22445;-77
2023/06/16 12:56:47;;;;;;;;;;;;;;;24.87;39.80;99912.34;134170;1297;22534;-77
2023/06/16 12:59:47;;;;;;;;;;;;;;;24.85;39.64;99915.11;134104;1297;22547;-77
2023/06/16 13:02:48;;;;;;;;;;;;;;;24.82;39.82;99911.51;134133;1297;22471;-77
2023/06/16 13:05:48;;;;;;;;;;;;;;;24.79;40.28;99919.05;134224;1297;22549;-77
2023/06/16 13:08:49;;;;;;;;;;;;;;;24.68;40.35;99916.98;134168;1296;22465;-76
2023/06/16 13:11:56;;;;;;;;;;;;;;;24.59;40.97;99913.60;134203;1296;22453;-77
2023/06/16 13:14:59;;;;;;;;;;;;;;;24.53;41.30;99913.88;134186;1298;22520;-77
2023/06/16 13:18:00;;;;;;;;;;;;;;;24.43;41.53;99911.58;134222;1297;23232;-77
2023/06/16 13:21:06;;;;;;;;;;;;;;;24.31;41.49;99905.07;134254;1297;22461;-81
2023/06/16 13:24:10;;;;;;;;;;;;;;;24.20;41.97;99910.09;134163;1297;22465;-77
2023/06/16 13:27:10;;;;;;;;;;;;;;;24.10;41.90;99906.79;134275;1297;22468;-74
2023/06/16 13:30:14;;;;;;;;;;;;;;;23.92;42.03;99904.81;134295;1297;22513;-77
2023/06/16 13:33:17;;;;;;;;;;;;;;;23.93;42.45;99904.71;134244;1297;22494;-76
2023/06/16 13:36:23;;;;;;;;;;;;;;;23.97;42.50;99903.00;134244;1298;22462;-77
2023/06/16 13:39:27;;;;;;;;;;;;;;;24.13;42.73;99897.36;134239;1297;22466;-75
2023/06/16 13:42:27;;;;;;;;;;;;;;;24.38;42.68;99897.79;134150;1297;22450;-73
2023/06/16 13:45:32;;;;;;;;;;;;;;;24.66;42.83;99893.23;134223;1297;23109;-75
2023/06/16 13:48:35;;;;;;;;;;;;;;;24.91;42.35;99892.38;134304;1294;22468;-76
2023/06/16 13:51:36;;;;;;;;;;;;;;;25.00;42.19;99893.21;134245;1297;22427;-76
2023/06/16 13:54:37;;;;;;;;;;;;;;;25.04;41.99;99886.88;134325;1297;23225;-73
2023/06/16 13:57:40;;;;;;;;;;;;;;;25.06;42.09;99881.08;134268;1297;23466;-75
2023/06/16 14:00:41;;;;;;;;;;;;;;;25.07;41.40;99876.03;134152;1297;22484;-76
2023/06/16 14:03:42;;;;;;;;;;;;;;;25.05;41.17;99876.52;134182;1298;23658;-75
2023/06/16 14:06:42;;;;;;;;;;;;;;;24.95;41.11;99876.92;134218;1297;23115;-76
2023/06/16 14:09:45;;;;;;;;;;;;;;;24.90;41.10;99872.09;134236;1297;22453;-75
2023/06/16 14:12:45;;;;;;;;;;;;;;;24.80;40.70;99874.38;134233;1297;23237;-76
2023/06/16 14:15:50;;;;;;;;;;;;;;;24.80;41.18;99874.55;134176;1297;23226;-74
2023/06/16 14:18:52;;;;;;;;;;;;;;;24.82;41.08;99872.27;134244;1297;22542;-75
2023/06/16 14:21:54;;;;;;;;;;;;;;;24.80;41.56;99875.31;134173;1297;22478;-76
2023/06/16 14:24:57;;;;;;;;;;;;;;;24.85;41.83;99875.11;134135;1297;22465;-75
2023/06/16 14:27:58;;;;;;;;;;;;;;;24.90;41.86;99876.42;134029;1295;22427;-76
2023/06/16 14:31:00;;;;;;;;;;;;;;;24.86;42.24;99877.17;134169;1297;22951;-76
2023/06/16 14:34:01;;;;;;;;;;;;;;;24.79;42.30;99877.15;134187;1297;22431;-76
2023/06/16 14:37:02;;;;;;;;;;;;;;;24.61;42.16;99879.85;134258;1297;23081;-76
2023/06/16 14:40:03;;;;;;;;;;;;;;;24.36;41.96;99883.23;134212;1297;22461;-75
2023/06/16 14:43:05;;;;;;;;;;;;;;;24.10;42.02;99887.38;134219;1297;22452;-76
2023/06/16 14:46:08;;;;;;;;;;;;;;;23.88;42.30;99885.48;134213;1297;22535;-76
2023/06/16 14:49:09;;;;;;;;;;;;;;;23.75;42.50;99887.45;134228;1297;22450;-76
2023/06/16 14:52:12;;;;;;;;;;;;;;;23.70;42.79;99886.91;134194;1302;22449;-76
2023/06/16 14:55:13;;;;;;;;;;;;;;;23.60;42.98;99887.47;134157;1297;22445;-74
2023/06/16 14:58:16;;;;;;;;;;;;;;;23.53;42.97;99886.16;134228;1296;22459;-74
2023/06/16 15:01:17;;;;;;;;;;;;;;;23.36;43.30;99887.91;134180;1297;22448;-75
2023/06/16 15:04:17;;;;;;;;;;;;;;;23.30;43.52;99887.10;134192;1301;22499;-75
2023/06/16 15:07:18;;;;;;;;;;;;;;;23.30;43.55;99886.39;134199;1297;23529;-75
2023/06/16 15:10:19;;;;;;;;;;;;;;;23.24;43.67;99884.02;134168;1297;22480;-75
2023/06/16 15:13:19;;;;;;;;;;;;;;;23.21;43.80;99880.30;134198;1297;22477;-75
2023/06/16 15:16:20;;;;;;;;;;;;;;;23.15;43.84;99882.02;134212;1288;24141;-75
2023/06/16 15:19:22;;;;;;;;;;;;;;;23.05;43.78;99881.16;134159;1297;23236;-74
2023/06/16 15:22:24;;;;;;;;;;;;;;;22.99;43.81;99885.27;134245;1297;22656;-75
2023/06/16 15:25:24;;;;;;;;;;;;;;;23.00;44.41;99883.92;134201;1297;23207;-74
2023/06/16 15:28:27;;;;;;;;;;;;;;;23.00;44.86;99884.52;134197;1297;22453;-75